createdAt,value
2017-09-28T09:24:12.371Z,20.00
2017-09-28T09:26:40.670Z,20.10
2017-09-28T09:29:14.405Z,20.40
2017-09-28T09:31:42.721Z,20.70
2017-09-28T09:34:11.023Z,20.90
2017-09-28T09:36:39.650Z,21.10
2017-09-28T09:39:07.916Z,21.30
2017-09-28T09:41:36.208Z,21.60
2017-09-28T09:44:05.320Z,22.10
2017-09-28T09:46:34.398Z,22.60
2017-09-28T09:49:03.060Z,22.60
2017-09-28T09:51:31.345Z,22.80
2017-09-28T09:53:59.667Z,22.80
2017-09-28T09:56:29.227Z,23.00
2017-09-28T09:58:57.559Z,23.00
2017-09-28T10:01:25.858Z,23.20
2017-09-28T10:03:54.207Z,23.50
2017-09-28T10:06:25.601Z,23.90
2017-09-28T10:09:06.696Z,24.00
2017-09-28T10:12:07.478Z,24.60
2017-09-28T10:15:08.991Z,24.50
2017-09-28T10:17:39.299Z,25.40
2017-09-28T10:20:07.616Z,25.40
2017-09-28T10:22:36.197Z,25.80
2017-09-28T10:25:04.528Z,25.90
2017-09-28T10:27:33.138Z,26.60
2017-09-28T10:30:01.761Z,27.40
2017-09-28T10:32:30.068Z,27.70
2017-09-28T10:34:59.118Z,29.20
2017-09-28T10:37:27.407Z,29.10
2017-09-28T10:39:55.748Z,30.80
2017-09-28T10:42:25.106Z,31.90
2017-09-28T10:44:53.493Z,31.90
2017-09-28T10:47:21.818Z,32.70
2017-09-28T10:49:50.451Z,33.10
2017-09-28T10:52:18.775Z,33.20
2017-09-28T10:54:47.822Z,33.80
2017-09-28T10:57:16.152Z,33.80
2017-09-28T10:59:45.331Z,35.10
2017-09-28T11:02:13.925Z,35.00
2017-09-28T11:04:42.199Z,35.20
2017-09-28T11:07:10.887Z,34.20
2017-09-28T11:09:39.458Z,34.00
2017-09-28T11:12:07.756Z,33.70
2017-09-28T11:14:37.140Z,32.80
2017-09-28T11:17:05.426Z,32.00
2017-09-28T11:19:33.776Z,30.80
2017-09-28T11:22:03.116Z,30.90
2017-09-28T11:24:31.438Z,30.80
2017-09-28T11:27:00.497Z,32.90
2017-09-28T11:29:29.097Z,32.90
2017-09-28T11:31:58.883Z,33.40
2017-09-28T11:34:27.160Z,33.50
2017-09-28T11:36:55.480Z,33.80
2017-09-28T11:39:24.052Z,33.50
2017-09-28T11:41:52.356Z,33.40
2017-09-28T11:44:20.668Z,33.70
2017-09-28T11:46:48.967Z,34.80
2017-09-28T11:49:17.277Z,35.80
2017-09-28T11:51:45.581Z,35.20
2017-09-28T11:54:13.876Z,34.20
2017-09-28T11:56:42.207Z,33.40
2017-09-28T11:59:10.508Z,32.60
2017-09-28T12:01:38.913Z,32.60
2017-09-28T12:04:07.284Z,33.60
2017-09-28T12:06:36.845Z,36.40
2017-09-28T12:09:06.534Z,37.10
2017-09-28T12:11:35.427Z,37.00
2017-09-28T12:14:05.639Z,37.00
2017-09-28T12:16:33.951Z,37.00
2017-09-28T12:19:02.339Z,36.80
2017-09-28T12:21:30.643Z,36.40
2017-09-28T12:23:59.200Z,35.90
2017-09-28T12:26:28.260Z,36.10
2017-09-28T12:28:56.556Z,36.00
2017-09-28T12:31:24.924Z,35.90
2017-09-28T12:33:53.222Z,36.20
2017-09-28T12:36:22.328Z,36.20
2017-09-28T12:38:51.002Z,36.00
2017-09-28T12:41:19.381Z,36.20
2017-09-28T12:43:48.094Z,36.00
2017-09-28T12:46:16.770Z,36.80
2017-09-28T12:48:45.100Z,36.90
2017-09-28T12:51:13.418Z,36.50
2017-09-28T12:53:41.773Z,35.90
2017-09-28T12:56:10.142Z,34.80
2017-09-28T12:58:39.228Z,33.30
2017-09-28T13:01:08.303Z,33.60
2017-09-28T13:03:37.009Z,33.60
2017-09-28T13:06:05.335Z,34.30
2017-09-28T13:08:33.634Z,34.90
2017-09-28T13:11:02.974Z,34.90
2017-09-28T13:13:32.075Z,34.90
2017-09-28T13:16:00.350Z,34.00
2017-09-28T13:18:28.958Z,32.90
2017-09-28T13:20:58.514Z,32.60
2017-09-28T13:23:26.933Z,32.60
2017-09-28T13:25:55.236Z,32.30
2017-09-28T13:38:23.756Z,30.10
2017-09-28T13:40:53.168Z,30.00
2017-09-28T13:43:21.486Z,29.70
2017-09-28T13:45:50.582Z,28.70
2017-09-28T13:48:18.920Z,28.70
2017-09-28T13:50:47.212Z,28.50
2017-09-28T13:53:15.515Z,28.30
2017-09-28T13:55:43.814Z,28.20
2017-09-28T13:58:12.166Z,27.90
2017-09-28T14:00:40.475Z,27.30
2017-09-28T14:03:08.789Z,27.40
2017-09-28T14:05:37.092Z,27.30
2017-09-28T14:08:06.330Z,27.40
2017-09-28T14:10:34.619Z,27.20
2017-09-28T14:13:03.726Z,26.70
2017-09-28T14:18:02.789Z,25.60
2017-09-28T14:20:31.383Z,25.30
2017-09-28T14:23:00.021Z,24.80
2017-09-28T14:28:06.719Z,24.40
2017-09-28T14:30:35.827Z,23.80
2017-09-28T14:33:04.904Z,23.50
2017-09-28T14:35:34.717Z,23.40
2017-09-28T14:38:03.409Z,23.40
2017-09-28T14:50:31.569Z,23.90
2017-09-28T14:53:01.295Z,23.60
2017-09-28T14:55:29.568Z,23.60
2017-09-28T14:57:58.320Z,23.80
2017-09-28T15:00:26.665Z,24.10
2017-09-28T15:02:54.946Z,24.10
2017-09-28T15:05:24.053Z,23.90
2017-09-28T15:07:53.123Z,23.80
2017-09-28T15:12:51.300Z,23.40
